Portada
METAR-TAF:

METAR-TAF

Aeroports :

Schwäbisch Hall, Alemanya

latitud: 49-07-06N, longitud: 9-47-02E, altitud: 398 m

Observació

L'informe es va fer fa 32 minuts, a les 15:20 UTC
Vent 3 kt del Sud/Sud-Oest, variant entre Sud-Est i Oest
Temperatura 3°C
Humitat 75%
Pressió 1025 hPa
Visibilitat 10 km o més
Escasses núvols a una alçada de 4300 ft

METAR: EDTY 101520Z 20003KT 140V260 9999 FEW043 03/M01 Q1025

Hora: 16:52 (15:52 UTC)

Pronòstic

L'informe es va fer fa 1 hora i 52 minuts, a les 14:00 UTC
Pronòstic vàlid del 10 a les 15 UTC al 10 a les 24 UTC
Vent 3 kt del Sud
Visibilitat 10 km o més
Escasses núvols a una alçada de 3000 ft

TAF: EDTY 101400Z 1015/1024 19003KT 9999 FEW030

Observacions i pronòstics meteorològics de més de 4000 aeroports (METAR i TAF).

Les estacions disponibles són els punts grocs i vermells al mapa.

Posi el ratolí al punt desitjat per veure el nom de l'estació.

Feu clic per veure les observacions i els pronòstics meteorològics.

Per canviar el mapa: feu clic els botons verds amb una creu de color negre per apropar; al botó verd amb un guió per allunyar la imatge; o en les fletxes verdes per a mapes adjacents.


METAR-TAF: